createdAt,value
2019-04-23T17:23:28.953Z,22.12
2019-04-23T17:25:48.543Z,22.07
2019-04-23T17:28:23.010Z,22.12
2019-04-23T17:31:06.151Z,22.23
2019-04-23T17:33:33.506Z,22.42
2019-04-23T17:36:14.664Z,22.56
2019-04-23T17:38:37.909Z,22.69
2019-04-23T17:41:07.341Z,22.82
2019-04-23T17:43:39.938Z,22.90
2019-04-23T17:46:08.891Z,22.96
2019-04-23T17:48:34.550Z,22.99
2019-04-23T17:51:11.564Z,23.06
2019-04-23T17:53:56.169Z,23.13
2019-04-23T17:58:58.604Z,23.23
2019-04-23T18:04:45.005Z,23.28
2019-04-23T18:08:51.008Z,23.29
2019-04-23T18:11:16.230Z,23.26
2019-04-23T18:13:49.511Z,23.24
2019-04-23T18:18:55.221Z,23.17
2019-04-23T18:24:14.826Z,23.00
2019-04-23T18:26:36.029Z,22.93
2019-04-23T18:29:22.486Z,22.85
2019-04-23T18:31:59.528Z,22.75
2019-04-23T18:34:42.306Z,22.59
2019-04-23T18:37:01.532Z,22.37
2019-04-23T18:39:38.810Z,22.22
2019-04-23T18:42:13.365Z,22.14
2019-04-23T18:44:36.438Z,22.05
2019-04-23T18:47:07.599Z,21.94
2019-04-23T18:49:40.905Z,21.84
2019-04-23T18:52:05.065Z,21.73
2019-04-23T18:54:32.970Z,21.62
2019-04-23T18:59:47.148Z,21.42
2019-04-23T19:02:20.479Z,21.35
2019-04-23T19:07:42.979Z,21.29
2019-04-23T19:12:53.690Z,21.13
2019-04-23T19:15:23.580Z,21.04
2019-04-23T19:20:29.785Z,20.88
2019-04-23T19:22:55.164Z,20.81
2019-04-23T19:27:45.892Z,20.74
2019-04-23T19:30:37.029Z,20.70
2019-04-23T19:32:55.611Z,20.64
2019-04-23T19:35:53.806Z,20.67
2019-04-23T19:38:08.283Z,20.66
2019-04-23T19:40:29.827Z,20.63
2019-04-23T19:42:55.298Z,20.64
2019-04-23T19:45:29.801Z,20.61
2019-04-23T19:50:38.847Z,20.57
2019-04-23T19:55:30.136Z,20.52
2019-04-23T19:58:07.110Z,20.54
2019-04-23T20:00:53.460Z,20.50
2019-04-23T20:03:17.260Z,20.46
2019-04-23T20:05:30.852Z,20.38
2019-04-23T20:08:25.481Z,20.35
2019-04-23T20:10:33.141Z,20.29
